createdAt,value
2017-06-04T00:01:21.157Z,83.40
2017-06-04T00:03:49.333Z,83.40
2017-06-04T00:06:17.518Z,83.80
2017-06-04T00:08:45.690Z,84.10
2017-06-04T00:11:13.851Z,84.00
2017-06-04T00:13:42.062Z,84.50
2017-06-04T00:16:10.996Z,85.20
2017-06-04T00:18:39.172Z,85.10
2017-06-04T00:21:07.349Z,85.30
2017-06-04T00:23:35.527Z,85.50
2017-06-04T00:26:03.680Z,85.40
2017-06-04T00:28:31.870Z,85.30
2017-06-04T00:31:00.046Z,85.60
2017-06-04T00:33:28.197Z,85.50
2017-06-04T00:35:56.411Z,85.50
2017-06-04T00:38:24.591Z,85.70
2017-06-04T00:40:52.768Z,86.10
2017-06-04T00:43:20.947Z,86.20
2017-06-04T00:45:49.110Z,85.90
2017-06-04T00:48:17.290Z,85.80
2017-06-04T00:50:45.470Z,85.90
2017-06-04T00:53:13.632Z,86.50
2017-06-04T00:55:41.813Z,86.00
2017-06-04T00:58:10.169Z,86.90
2017-06-04T01:00:38.326Z,87.00
2017-06-04T01:03:06.473Z,87.00
2017-06-04T01:05:35.438Z,87.30
2017-06-04T01:08:03.602Z,87.30
2017-06-04T01:10:31.781Z,87.40
2017-06-04T01:12:59.997Z,87.60
2017-06-04T01:15:28.944Z,87.80
2017-06-04T01:17:57.115Z,87.80
2017-06-04T01:20:25.320Z,87.90
2017-06-04T01:22:53.471Z,88.50
2017-06-04T01:25:21.624Z,88.80
2017-06-04T01:27:49.941Z,89.80
2017-06-04T01:30:18.130Z,90.00
2017-06-04T01:32:47.077Z,89.90
2017-06-04T01:35:15.281Z,89.90
2017-06-04T01:37:43.452Z,90.00
2017-06-04T01:40:11.618Z,90.00
2017-06-04T01:42:39.801Z,90.20
2017-06-04T01:45:07.969Z,90.40
2017-06-04T01:47:36.152Z,90.50
2017-06-04T01:50:04.360Z,90.40
2017-06-04T01:52:33.293Z,90.60
2017-06-04T01:55:01.449Z,90.50
2017-06-04T01:57:29.667Z,90.50
2017-06-04T01:59:57.851Z,90.30
2017-06-04T02:02:26.010Z,90.00
2017-06-04T02:04:54.232Z,90.00
2017-06-04T02:07:22.393Z,90.10
2017-06-04T02:09:50.554Z,89.80
2017-06-04T02:12:18.742Z,90.20
2017-06-04T02:14:46.911Z,90.10
2017-06-04T02:17:15.838Z,90.20
2017-06-04T02:19:44.040Z,90.10
2017-06-04T02:22:12.199Z,90.10
2017-06-04T02:24:40.378Z,90.00
2017-06-04T02:27:08.567Z,90.00
2017-06-04T02:29:36.728Z,90.10
2017-06-04T02:32:04.878Z,90.00
2017-06-04T02:34:33.102Z,89.40
2017-06-04T02:37:01.281Z,89.60
2017-06-04T02:39:29.451Z,89.70
2017-06-04T02:41:57.665Z,89.20
2017-06-04T02:44:26.605Z,89.20
2017-06-04T02:46:54.782Z,89.10
2017-06-04T02:49:22.987Z,89.40
2017-06-04T02:51:51.165Z,89.80
2017-06-04T02:54:20.123Z,90.00
2017-06-04T02:56:48.328Z,90.00
2017-06-04T02:59:16.478Z,90.20
2017-06-04T03:01:44.645Z,90.30
2017-06-04T03:04:12.857Z,90.20
2017-06-04T03:06:41.782Z,90.40
2017-06-04T03:09:09.934Z,90.50
2017-06-04T03:11:38.926Z,90.70
2017-06-04T03:14:07.867Z,90.80
2017-06-04T03:16:36.019Z,90.80
2017-06-04T03:19:04.203Z,90.70
2017-06-04T03:21:32.374Z,90.60
2017-06-04T03:24:00.532Z,90.70
2017-06-04T03:26:28.710Z,90.60
2017-06-04T03:28:56.861Z,90.70
2017-06-04T03:31:25.784Z,90.70
2017-06-04T03:33:54.321Z,90.70
2017-06-04T03:36:22.477Z,90.60
2017-06-04T03:38:50.636Z,90.50
2017-06-04T03:41:18.837Z,90.50
2017-06-04T03:43:46.998Z,90.30
2017-06-04T03:46:15.176Z,90.40
2017-06-04T03:48:43.359Z,90.20
2017-06-04T03:51:11.544Z,90.20
2017-06-04T03:53:39.706Z,89.90
2017-06-04T03:56:07.911Z,90.10
2017-06-04T03:58:36.905Z,90.40
2017-06-04T04:01:05.847Z,90.10
2017-06-04T04:03:34.390Z,90.00
2017-06-04T04:06:03.325Z,90.10
2017-06-04T04:08:31.506Z,90.00
2017-06-04T04:10:59.687Z,90.10
2017-06-04T04:13:27.864Z,89.90
2017-06-04T04:15:56.043Z,90.10
2017-06-04T04:18:24.226Z,90.00
2017-06-04T04:20:52.382Z,90.10
2017-06-04T04:23:20.546Z,90.00
2017-06-04T04:25:48.744Z,90.00
2017-06-04T04:28:16.905Z,89.40
2017-06-04T04:30:45.082Z,89.80
2017-06-04T04:33:13.289Z,89.90
2017-06-04T04:35:41.463Z,90.00
2017-06-04T04:38:10.385Z,89.50
2017-06-04T04:40:38.590Z,90.00
2017-06-04T04:43:06.785Z,89.90
2017-06-04T04:45:34.938Z,90.00
2017-06-04T04:48:03.132Z,90.20
2017-06-04T04:50:31.287Z,90.30
2017-06-04T04:52:59.464Z,90.40
2017-06-04T04:55:27.649Z,90.30
2017-06-04T04:57:55.820Z,90.10
2017-06-04T05:00:23.980Z,90.00
2017-06-04T05:02:52.181Z,89.20
2017-06-04T05:05:20.343Z,89.20
2017-06-04T05:07:48.496Z,89.40
2017-06-04T05:10:16.702Z,88.70
2017-06-04T05:12:44.892Z,88.70
2017-06-04T05:15:13.098Z,89.00
2017-06-04T05:17:41.309Z,89.70
2017-06-04T05:20:09.493Z,89.40
2017-06-04T05:22:37.649Z,88.90
2017-06-04T05:25:05.829Z,89.00
2017-06-04T05:27:39.588Z,88.50
2017-06-04T05:30:08.552Z,88.70
2017-06-04T05:32:36.707Z,88.50
2017-06-04T05:35:04.873Z,88.60
2017-06-04T05:37:33.056Z,88.20
2017-06-04T05:40:01.212Z,88.10
2017-06-04T05:42:29.384Z,88.10
2017-06-04T05:44:57.583Z,87.90
2017-06-04T05:47:25.743Z,88.70
2017-06-04T05:49:53.897Z,87.90
2017-06-04T05:52:22.100Z,87.90
2017-06-04T05:54:50.273Z,88.10
2017-06-04T05:57:18.431Z,88.00
2017-06-04T05:59:46.614Z,88.10
2017-06-04T06:02:14.794Z,87.60
2017-06-04T06:04:42.953Z,87.70
2017-06-04T06:07:11.137Z,87.40
2017-06-04T06:09:39.314Z,87.50
2017-06-04T06:12:07.489Z,87.20
2017-06-04T06:14:35.677Z,87.70
2017-06-04T06:17:03.853Z,87.40
2017-06-04T06:19:32.031Z,86.70
2017-06-04T06:22:00.230Z,86.70
2017-06-04T06:24:28.414Z,87.80
2017-06-04T06:26:57.355Z,87.90
2017-06-04T06:29:25.550Z,87.50
2017-06-04T06:31:53.727Z,87.10
2017-06-04T06:34:21.898Z,87.30
2017-06-04T06:36:50.108Z,87.40
2017-06-04T06:39:18.285Z,87.10
2017-06-04T06:41:47.279Z,86.60
2017-06-04T06:44:15.482Z,86.50
2017-06-04T06:46:43.661Z,86.70
2017-06-04T06:49:11.810Z,87.00
2017-06-04T06:51:40.019Z,87.00
2017-06-04T06:54:08.206Z,87.00
2017-06-04T06:56:36.382Z,87.20
2017-06-04T06:59:04.601Z,86.70
2017-06-04T07:01:32.750Z,86.90
2017-06-04T07:04:01.675Z,87.90
2017-06-04T07:06:29.877Z,87.30
2017-06-04T07:08:58.136Z,87.20
2017-06-04T07:11:26.294Z,86.50
2017-06-04T07:13:54.506Z,86.60
2017-06-04T07:16:22.672Z,87.00
2017-06-04T07:18:50.830Z,87.30
2017-06-04T07:21:19.036Z,86.60
2017-06-04T07:23:47.196Z,86.80
2017-06-04T07:26:15.353Z,86.70
2017-06-04T07:28:43.563Z,86.90
2017-06-04T07:31:12.525Z,87.10
2017-06-04T07:33:40.683Z,86.90
2017-06-04T07:36:08.926Z,87.40
2017-06-04T07:38:37.107Z,87.00
2017-06-04T07:41:05.271Z,86.10
2017-06-04T07:43:34.251Z,86.00
2017-06-04T07:46:03.199Z,86.20
2017-06-04T07:48:31.365Z,86.20
2017-06-04T07:50:59.553Z,86.70
2017-06-04T07:53:27.893Z,86.30
2017-06-04T07:55:56.053Z,86.50
2017-06-04T07:58:25.010Z,86.10
2017-06-04T08:00:53.164Z,85.90
2017-06-04T08:03:22.019Z,85.60
2017-06-04T08:05:54.791Z,87.00
2017-06-04T08:08:23.061Z,87.00
2017-06-04T08:10:51.230Z,86.90
2017-06-04T08:13:19.439Z,86.80
2017-06-04T08:15:47.610Z,87.20
2017-06-04T08:18:15.790Z,87.90
2017-06-04T08:20:43.991Z,88.00
2017-06-04T08:23:12.946Z,87.80
2017-06-04T08:25:41.095Z,87.70
2017-06-04T08:28:09.325Z,87.60
2017-06-04T08:30:37.481Z,88.40
2017-06-04T08:33:05.656Z,88.90
2017-06-04T08:35:34.248Z,88.70
2017-06-04T08:38:02.434Z,88.10
2017-06-04T08:40:30.636Z,88.50
2017-06-04T08:42:58.846Z,88.80
2017-06-04T08:45:27.023Z,88.20
2017-06-04T08:47:55.174Z,87.60
2017-06-04T08:50:23.361Z,87.40
2017-06-04T08:52:51.513Z,86.60
2017-06-04T08:55:19.669Z,87.00
2017-06-04T08:57:48.618Z,87.30
2017-06-04T09:00:16.778Z,86.30
2017-06-04T09:02:44.937Z,85.80
2017-06-04T09:05:13.130Z,86.70
2017-06-04T09:07:41.301Z,86.20
2017-06-04T09:10:09.459Z,85.80
2017-06-04T09:12:37.664Z,86.80
2017-06-04T09:15:05.820Z,86.60
2017-06-04T09:17:33.996Z,87.10
2017-06-04T09:20:02.202Z,86.70
2017-06-04T09:22:30.366Z,87.30
2017-06-04T09:24:58.536Z,87.00
2017-06-04T09:27:26.721Z,87.40
2017-06-04T09:29:54.900Z,88.10
2017-06-04T09:32:23.073Z,88.10
2017-06-04T09:34:51.269Z,87.90
2017-06-04T09:37:19.419Z,88.00
2017-06-04T09:39:47.601Z,88.50
2017-06-04T09:42:15.790Z,88.20
2017-06-04T09:44:43.964Z,88.80
2017-06-04T09:47:12.122Z,88.30
2017-06-04T09:49:40.341Z,87.10
2017-06-04T09:52:09.261Z,87.40
2017-06-04T09:54:37.413Z,87.30
2017-06-04T09:57:05.633Z,87.00
2017-06-04T09:59:33.790Z,86.50
2017-06-04T10:02:01.964Z,86.60
2017-06-04T10:04:30.272Z,87.30
2017-06-04T10:06:58.421Z,86.80
2017-06-04T10:09:26.582Z,87.10
2017-06-04T10:11:54.766Z,87.90
2017-06-04T10:14:22.948Z,87.60
2017-06-04T10:16:51.124Z,86.90
2017-06-04T10:19:19.326Z,86.90
2017-06-04T10:21:47.493Z,86.50
2017-06-04T10:24:15.662Z,85.60
2017-06-04T10:26:43.845Z,82.40
2017-06-04T10:29:12.027Z,80.80
2017-06-04T10:31:40.198Z,81.60
2017-06-04T10:34:08.382Z,79.00
2017-06-04T10:36:36.560Z,77.60
2017-06-04T10:39:04.710Z,76.50
2017-06-04T10:41:32.912Z,77.80
2017-06-04T10:44:01.833Z,78.50
2017-06-04T10:46:30.010Z,78.40
2017-06-04T10:48:58.194Z,81.50
2017-06-04T10:51:26.372Z,81.70
2017-06-04T10:53:54.522Z,80.90
2017-06-04T10:56:22.730Z,82.50
2017-06-04T10:58:50.895Z,81.30
2017-06-04T11:01:19.060Z,80.20
2017-06-04T11:03:47.246Z,78.90
2017-06-04T11:06:15.398Z,77.10
2017-06-04T11:08:43.584Z,76.80
2017-06-04T11:11:11.789Z,76.10
2017-06-04T11:13:39.952Z,70.80
2017-06-04T11:16:08.099Z,68.20
2017-06-04T11:18:36.301Z,68.50
2017-06-04T11:21:04.478Z,68.70
2017-06-04T11:23:32.633Z,66.70
2017-06-04T11:26:00.813Z,64.60
2017-06-04T11:28:28.970Z,60.80
2017-06-04T11:30:57.125Z,58.80
2017-06-04T11:33:26.093Z,55.70
2017-06-04T11:35:54.241Z,55.10
2017-06-04T11:38:22.409Z,53.60
2017-06-04T11:40:50.591Z,54.30
2017-06-04T11:43:18.756Z,53.90
2017-06-04T11:45:46.898Z,54.20
2017-06-04T11:48:15.865Z,55.40
2017-06-04T11:50:44.034Z,55.30
2017-06-04T11:53:12.201Z,54.60
2017-06-04T11:55:40.387Z,52.70
2017-06-04T11:58:08.558Z,51.80
2017-06-04T12:00:36.706Z,52.20
2017-06-04T12:03:04.905Z,53.50
2017-06-04T12:05:33.059Z,54.00
2017-06-04T12:08:01.211Z,52.10
2017-06-04T12:10:29.390Z,53.80
2017-06-04T12:12:57.566Z,53.50
2017-06-04T12:15:25.718Z,52.90
2017-06-04T12:17:53.916Z,52.30
2017-06-04T12:20:22.188Z,52.00
2017-06-04T12:22:50.340Z,53.30
2017-06-04T12:25:19.290Z,53.60
2017-06-04T12:27:47.603Z,53.60
2017-06-04T12:30:15.762Z,54.80
2017-06-04T12:32:43.945Z,53.10
2017-06-04T12:35:12.866Z,55.40
2017-06-04T12:37:41.041Z,55.10
2017-06-04T12:40:09.224Z,52.50
2017-06-04T12:42:37.392Z,52.40
2017-06-04T12:45:05.561Z,52.30
2017-06-04T12:47:33.744Z,52.30
2017-06-04T12:50:01.899Z,51.40
2017-06-04T12:52:30.833Z,51.10
2017-06-04T12:54:59.036Z,51.00
2017-06-04T12:57:27.201Z,51.40
2017-06-04T12:59:55.353Z,52.40
2017-06-04T13:02:23.878Z,51.40
2017-06-04T13:04:52.029Z,48.40
2017-06-04T13:07:20.179Z,49.30
2017-06-04T13:09:48.361Z,50.90
2017-06-04T13:12:16.529Z,51.60
2017-06-04T13:14:44.701Z,50.30
2017-06-04T13:17:12.907Z,51.00
2017-06-04T13:19:41.082Z,51.50
2017-06-04T13:22:09.234Z,52.60
2017-06-04T13:24:37.451Z,50.50
2017-06-04T13:27:05.628Z,52.10
2017-06-04T13:29:33.774Z,50.50
2017-06-04T13:32:01.985Z,49.80
2017-06-04T13:34:30.917Z,48.30
2017-06-04T13:36:59.089Z,48.30
2017-06-04T13:39:27.273Z,49.00
2017-06-04T13:41:55.440Z,51.10
2017-06-04T13:44:23.604Z,50.80
2017-06-04T13:46:51.803Z,51.50
2017-06-04T13:49:19.973Z,49.10
2017-06-04T13:51:48.139Z,49.60
2017-06-04T13:54:16.328Z,49.70
2017-06-04T13:56:44.494Z,49.00
2017-06-04T13:59:12.656Z,49.00
2017-06-04T14:01:40.851Z,48.80
2017-06-04T14:04:08.999Z,49.60
2017-06-04T14:06:37.158Z,49.30
2017-06-04T14:09:05.342Z,49.50
2017-06-04T14:11:33.519Z,48.10
2017-06-04T14:14:01.690Z,48.20
2017-06-04T14:16:29.877Z,48.60
2017-06-04T14:18:58.048Z,47.70
2017-06-04T14:21:26.208Z,48.30
2017-06-04T14:23:54.390Z,49.50
2017-06-04T14:26:22.542Z,49.10
2017-06-04T14:28:51.466Z,48.90
2017-06-04T14:31:19.645Z,48.70
2017-06-04T14:33:47.816Z,47.60
2017-06-04T14:36:16.107Z,48.30
2017-06-04T14:38:44.289Z,49.90
2017-06-04T14:41:12.435Z,49.00
2017-06-04T14:43:40.617Z,49.80
2017-06-04T14:46:08.791Z,49.10
2017-06-04T14:48:36.968Z,50.20
2017-06-04T14:51:05.118Z,50.20
2017-06-04T14:53:34.089Z,50.20
2017-06-04T14:56:02.264Z,50.20
2017-06-04T14:58:30.435Z,48.90
2017-06-04T15:00:58.658Z,48.70
2017-06-04T15:03:26.878Z,48.50
2017-06-04T15:05:55.071Z,48.70
2017-06-04T15:08:23.282Z,47.80
2017-06-04T15:10:51.454Z,48.80
2017-06-04T15:13:19.631Z,48.80
2017-06-04T15:15:47.828Z,49.50
2017-06-04T15:18:16.009Z,48.50
2017-06-04T15:20:44.166Z,49.10
2017-06-04T15:23:12.379Z,48.50
2017-06-04T15:25:41.310Z,49.50
2017-06-04T15:28:09.474Z,49.50
2017-06-04T15:30:37.674Z,50.20
2017-06-04T15:33:05.822Z,49.10
2017-06-04T15:35:34.773Z,48.60
2017-06-04T15:38:03.728Z,47.80
2017-06-04T15:40:31.893Z,47.80
2017-06-04T15:43:00.064Z,49.10
2017-06-04T15:45:28.266Z,49.10
2017-06-04T15:47:56.445Z,48.90
2017-06-04T15:50:25.385Z,48.90
2017-06-04T15:52:53.577Z,48.80
2017-06-04T15:55:21.726Z,47.80
2017-06-04T15:57:50.147Z,48.90
2017-06-04T16:00:18.330Z,49.00
2017-06-04T16:02:47.274Z,49.80
2017-06-04T16:05:15.496Z,49.70
2017-06-04T16:07:43.700Z,48.90
2017-06-04T16:10:11.914Z,48.30
2017-06-04T16:12:40.081Z,47.90
2017-06-04T16:15:08.268Z,47.80
2017-06-04T16:17:36.426Z,48.20
2017-06-04T16:20:04.582Z,48.00
2017-06-04T16:22:32.792Z,47.60
2017-06-04T16:25:00.973Z,48.00
2017-06-04T16:27:31.071Z,47.20
2017-06-04T16:30:00.263Z,47.20
2017-06-04T16:32:28.415Z,47.90
2017-06-04T16:34:57.352Z,48.20
2017-06-04T16:37:25.560Z,48.10
2017-06-04T16:39:53.732Z,48.40
2017-06-04T16:42:21.889Z,48.60
2017-06-04T16:44:50.074Z,48.40
2017-06-04T16:47:18.246Z,49.30
2017-06-04T16:49:46.391Z,48.30
2017-06-04T16:52:14.599Z,48.80
2017-06-04T16:54:42.769Z,48.80
2017-06-04T16:57:10.943Z,48.90
2017-06-04T16:59:39.123Z,49.50
2017-06-04T17:02:07.281Z,49.10
2017-06-04T17:04:35.452Z,49.10
2017-06-04T17:07:03.629Z,49.70
2017-06-04T17:09:31.778Z,49.20
2017-06-04T17:11:59.928Z,49.80
2017-06-04T17:14:28.878Z,48.50
2017-06-04T17:16:57.803Z,48.80
2017-06-04T17:19:25.996Z,48.80
2017-06-04T17:21:54.217Z,49.40
2017-06-04T17:24:23.158Z,49.50
2017-06-04T17:26:51.310Z,49.40
2017-06-04T17:29:19.513Z,49.30
2017-06-04T17:31:47.663Z,49.00
2017-06-04T17:34:15.810Z,48.60
2017-06-04T17:36:44.776Z,49.40
2017-06-04T17:39:13.700Z,49.40
2017-06-04T17:41:41.853Z,49.00
2017-06-04T17:44:10.041Z,48.80
2017-06-04T17:46:38.200Z,49.60
2017-06-04T17:49:06.369Z,49.00
2017-06-04T17:51:34.547Z,49.50
2017-06-04T17:54:02.693Z,49.30
2017-06-04T17:56:30.856Z,50.00
2017-06-04T17:58:59.806Z,51.40
2017-06-04T18:01:27.955Z,51.40
2017-06-04T18:03:56.110Z,51.50
2017-06-04T18:06:24.286Z,50.90
2017-06-04T18:08:52.453Z,51.40
2017-06-04T18:11:21.383Z,51.30
2017-06-04T18:13:50.326Z,51.20
2017-06-04T18:16:18.502Z,51.20
2017-06-04T18:18:46.685Z,51.40
2017-06-04T18:21:14.859Z,52.10
2017-06-04T18:23:43.005Z,52.20
2017-06-04T18:26:11.169Z,52.90
2017-06-04T18:28:39.370Z,52.80
2017-06-04T18:31:07.523Z,52.60
2017-06-04T18:33:35.697Z,52.70
2017-06-04T18:36:03.874Z,52.80
2017-06-04T18:38:32.052Z,52.90
2017-06-04T18:41:00.230Z,53.30
2017-06-04T18:43:28.415Z,53.30
2017-06-04T18:45:56.562Z,53.90
2017-06-04T18:48:24.715Z,53.90
2017-06-04T18:50:52.898Z,54.20
2017-06-04T18:53:21.046Z,55.00
2017-06-04T18:55:49.974Z,55.90
2017-06-04T18:58:18.174Z,55.90
2017-06-04T19:00:46.343Z,56.20
2017-06-04T19:03:14.519Z,56.40
2017-06-04T19:05:42.704Z,56.70
2017-06-04T19:08:11.519Z,56.50
2017-06-04T19:10:39.774Z,56.60
2017-06-04T19:13:07.973Z,56.70
2017-06-04T19:15:36.138Z,56.60
2017-06-04T19:18:04.307Z,56.00
2017-06-04T19:20:32.516Z,56.00
2017-06-04T19:23:00.678Z,55.30
2017-06-04T19:25:28.838Z,54.70
2017-06-04T19:27:57.793Z,55.20
2017-06-04T19:30:25.952Z,55.10
2017-06-04T19:32:54.125Z,55.30
2017-06-04T19:35:22.306Z,55.80
2017-06-04T19:37:50.466Z,55.90
2017-06-04T19:40:18.637Z,55.80
2017-06-04T19:42:46.830Z,56.10
2017-06-04T19:45:14.997Z,56.50
2017-06-04T19:47:43.165Z,56.70
2017-06-04T19:50:11.366Z,57.50
2017-06-04T19:52:39.532Z,57.60
2017-06-04T19:55:07.683Z,57.80
2017-06-04T19:57:35.867Z,57.70
2017-06-04T20:00:04.027Z,57.50
2017-06-04T20:02:32.177Z,57.70
2017-06-04T20:05:01.611Z,59.00
2017-06-04T20:07:30.609Z,59.40
2017-06-04T20:09:58.775Z,59.40
2017-06-04T20:12:26.975Z,59.70
2017-06-04T20:14:55.141Z,59.90
2017-06-04T20:17:23.314Z,59.90
2017-06-04T20:19:51.518Z,60.20
2017-06-04T20:22:19.666Z,60.10
2017-06-04T20:24:47.816Z,59.80
2017-06-04T20:27:16.014Z,59.50
2017-06-04T20:29:44.159Z,59.80
2017-06-04T20:32:13.074Z,60.40
2017-06-04T20:34:41.616Z,60.30
2017-06-04T20:37:10.531Z,61.00
2017-06-04T20:39:38.703Z,60.80
2017-06-04T20:42:07.663Z,61.20
2017-06-04T20:44:35.808Z,61.20
2017-06-04T20:47:03.980Z,61.80
2017-06-04T20:49:32.177Z,61.60
2017-06-04T20:52:00.973Z,61.00
2017-06-04T20:54:29.121Z,60.90
2017-06-04T20:56:57.317Z,61.30
2017-06-04T20:59:25.483Z,61.90
2017-06-04T21:01:53.647Z,61.70
2017-06-04T21:04:21.857Z,62.10
2017-06-04T21:06:50.026Z,61.60
2017-06-04T21:09:18.188Z,61.20
2017-06-04T21:11:46.384Z,61.40
2017-06-04T21:14:14.707Z,61.40
2017-06-04T21:16:42.878Z,61.20
2017-06-04T21:19:11.096Z,61.40
2017-06-04T21:21:39.251Z,61.40
2017-06-04T21:24:07.423Z,61.30
2017-06-04T21:26:35.626Z,61.60
2017-06-04T21:29:03.773Z,62.10
2017-06-04T21:31:31.937Z,62.00
2017-06-04T21:34:00.114Z,62.20
2017-06-04T21:36:28.282Z,61.80
2017-06-04T21:38:56.432Z,61.80
2017-06-04T21:41:24.610Z,62.10
2017-06-04T21:43:52.758Z,62.30
2017-06-04T21:46:20.915Z,62.40
2017-06-04T21:48:49.104Z,62.70
2017-06-04T21:51:17.269Z,62.70
2017-06-04T21:53:45.421Z,63.20
2017-06-04T21:56:13.601Z,62.30
2017-06-04T21:58:41.761Z,61.90
2017-06-04T22:01:09.919Z,61.90
2017-06-04T22:03:38.216Z,62.00
2017-06-04T22:06:06.381Z,62.40
2017-06-04T22:08:34.589Z,62.00
2017-06-04T22:11:02.869Z,61.80
2017-06-04T22:13:31.050Z,62.00
2017-06-04T22:15:59.207Z,62.00
2017-06-04T22:18:27.398Z,61.90
2017-06-04T22:20:55.564Z,62.30
2017-06-04T22:23:23.816Z,61.70
2017-06-04T22:25:52.009Z,61.80
2017-06-04T22:28:20.196Z,62.00
2017-06-04T22:30:48.349Z,61.80
2017-06-04T22:33:16.553Z,61.70
2017-06-04T22:35:44.728Z,61.60
2017-06-04T22:38:12.887Z,61.80
2017-06-04T22:40:41.065Z,61.80
2017-06-04T22:43:09.242Z,61.90
2017-06-04T22:45:37.399Z,62.50
2017-06-04T22:48:05.601Z,63.10
2017-06-04T22:50:33.749Z,62.90
2017-06-04T22:53:01.909Z,62.90
2017-06-04T22:55:30.098Z,63.00
2017-06-04T22:57:58.251Z,63.20
2017-06-04T23:00:26.425Z,64.70
2017-06-04T23:02:54.617Z,64.20
2017-06-04T23:05:22.781Z,64.50
2017-06-04T23:07:50.955Z,64.90
2017-06-04T23:10:19.149Z,65.30
2017-06-04T23:12:47.323Z,65.50
2017-06-04T23:15:15.484Z,66.30
2017-06-04T23:17:43.685Z,66.50
2017-06-04T23:20:11.870Z,67.00
2017-06-04T23:22:40.044Z,67.40
2017-06-04T23:25:08.246Z,67.90
2017-06-04T23:27:37.165Z,69.00
2017-06-04T23:30:05.350Z,69.00
2017-06-04T23:32:33.626Z,69.40
2017-06-04T23:35:01.797Z,69.50
2017-06-04T23:37:29.956Z,69.70
2017-06-04T23:39:58.146Z,69.90
2017-06-04T23:42:26.316Z,70.50
2017-06-04T23:44:54.462Z,70.50
2017-06-04T23:47:22.642Z,70.40
2017-06-04T23:49:50.813Z,70.60
2017-06-04T23:52:19.013Z,70.60
2017-06-04T23:54:47.220Z,71.00
2017-06-04T23:57:15.370Z,71.50
2017-06-04T23:59:43.533Z,71.50
